Time;durP1;ratioP1;P1;durP2;ratioP2;P2;SDS_P1;SDS_P2;PMS_P1;PMS_P2;Temp;Humidity;BMP_temperature;BMP_pressure;BME280_temperature;BME280_humidity;BME280_pressure;Samples;Min_cycle;Max_cycle;Signal;HPM_P1;HPM_P2
2022/11/25 00:00:21;;;;;;;26.00;7.73;;;;;;;;;;6124949;23;20775;-90
2022/11/25 00:03:26;;;;;;;29.03;8.13;;;;;;;;;;6124241;23;20218;-93
2022/11/25 00:06:32;;;;;;;112.83;10.03;;;;;;;;;;6124763;23;20490;-92
2022/11/25 00:09:39;;;;;;;108.97;10.80;;;;;;;;;;6122913;23;20200;-94
2022/11/25 00:12:43;;;;;;;174.30;11.13;;;;;;;;;;6124368;23;20161;-92
2022/11/25 00:15:48;;;;;;;94.70;8.23;;;;;;;;;;6123766;23;20173;-91
2022/11/25 00:18:55;;;;;;;85.07;9.13;;;;;;;;;;6123229;23;20649;-88
2022/11/25 00:22:01;;;;;;;95.53;8.90;;;;;;;;;;6124316;23;20186;-91
2022/11/25 00:25:08;;;;;;;43.83;7.50;;;;;;;;;;6139924;23;20173;-90
2022/11/25 00:28:14;;;;;;;82.57;7.70;;;;;;;;;;6124134;23;20161;-90
2022/11/25 00:31:20;;;;;;;98.80;8.90;;;;;;;;;;6123899;23;20170;-93
2022/11/25 00:34:26;;;;;;;84.90;8.93;;;;;;;;;;6122877;23;20177;-89
2022/11/25 00:37:32;;;;;;;72.40;9.27;;;;;;;;;;6124954;23;20214;-92
2022/11/25 00:40:39;;;;;;;97.20;9.23;;;;;;;;;;6125165;23;20496;-91
2022/11/25 00:47:09;;;;;;;56.30;7.87;;;;;;;;;;6127359;23;20194;-94
2022/11/25 00:50:21;;;;;;;41.87;8.30;;;;;;;;;;6123945;23;20196;-90
2022/11/25 00:53:26;;;;;;;82.27;8.37;;;;;;;;;;6142517;23;20174;-91
2022/11/25 00:56:32;;;;;;;65.63;7.03;;;;;;;;;;6123435;23;20176;-92
2022/11/25 00:59:38;;;;;;;63.97;7.70;;;;;;;;;;6124228;23;20153;-90
2022/11/25 01:02:43;;;;;;;47.13;6.90;;;;;;;;;;6139495;23;20173;-90
2022/11/25 01:05:51;;;;;;;48.57;7.00;;;;;;;;;;6123641;23;20176;-91
2022/11/25 01:08:56;;;;;;;18.80;6.10;;;;;;;;;;6140629;23;20197;-91
2022/11/25 01:12:02;;;;;;;40.93;6.33;;;;;;;;;;6122890;23;20165;-91
2022/11/25 01:15:09;;;;;;;63.10;7.17;;;;;;;;;;6123974;23;20178;-90
2022/11/25 01:18:15;;;;;;;49.13;7.93;;;;;;;;;;6122070;23;20181;-89
2022/11/25 01:21:22;;;;;;;86.00;9.07;;;;;;;;;;6123528;23;20221;-90
2022/11/25 01:24:28;;;;;;;111.80;8.73;;;;;;;;;;6124710;23;20173;-89
2022/11/25 01:27:34;;;;;;;75.13;10.17;;;;;;;;;;6123938;23;20172;-90
2022/11/25 01:30:44;;;;;;;55.07;7.87;;;;;;;;;;6121998;23;20197;-90
2022/11/25 01:33:55;;;;;;;44.40;7.57;;;;;;;;;;6123012;23;20188;-90
2022/11/25 01:37:00;;;;;;;45.20;7.17;;;;;;;;;;6123692;23;20198;-89
2022/11/25 01:40:06;;;;;;;44.10;7.23;;;;;;;;;;6140892;23;20167;-91
2022/11/25 01:43:14;;;;;;;35.00;6.60;;;;;;;;;;6140410;23;20165;-89
2022/11/25 01:46:24;;;;;;;43.33;8.07;;;;;;;;;;6123352;23;20161;-92
2022/11/25 01:49:32;;;;;;;29.03;6.77;;;;;;;;;;6123865;23;20252;-92
2022/11/25 01:52:40;;;;;;;47.70;7.27;;;;;;;;;;6122801;23;20236;-90
2022/11/25 01:55:49;;;;;;;32.03;6.77;;;;;;;;;;6143192;23;20177;-89
2022/11/25 01:58:56;;;;;;;27.13;6.83;;;;;;;;;;6123469;23;20198;-91
2022/11/25 02:02:01;;;;;;;54.23;6.90;;;;;;;;;;6125473;23;20185;-90
2022/11/25 02:05:08;;;;;;;46.07;7.73;;;;;;;;;;6139881;23;20209;-88
2022/11/25 02:08:14;;;;;;;69.57;8.30;;;;;;;;;;6139597;23;20194;-88
2022/11/25 02:11:20;;;;;;;87.07;9.10;;;;;;;;;;6124477;23;20197;-92
2022/11/25 02:14:27;;;;;;;65.07;8.13;;;;;;;;;;6124105;23;20220;-90
2022/11/25 02:17:32;;;;;;;58.00;7.40;;;;;;;;;;6121972;23;20213;-90
2022/11/25 02:20:39;;;;;;;78.73;8.73;;;;;;;;;;6121617;23;20240;-89
2022/11/25 02:23:48;;;;;;;61.00;8.47;;;;;;;;;;6125052;23;20201;-88
2022/11/25 02:26:55;;;;;;;74.63;8.43;;;;;;;;;;6140596;23;20173;-90
2022/11/25 02:30:00;;;;;;;103.10;8.83;;;;;;;;;;6123998;23;20196;-89
2022/11/25 02:33:05;;;;;;;70.57;8.53;;;;;;;;;;6123136;23;20176;-90
2022/11/25 02:36:13;;;;;;;95.13;8.50;;;;;;;;;;6123568;23;20188;-91
2022/11/25 02:39:19;;;;;;;169.70;12.40;;;;;;;;;;6125083;23;20165;-90
2022/11/25 02:42:27;;;;;;;86.17;10.47;;;;;;;;;;6124127;23;20222;-92
2022/11/25 02:45:42;;;;;;;83.23;9.43;;;;;;;;;;6123748;23;20173;-90
2022/11/25 02:48:48;;;;;;;57.33;8.93;;;;;;;;;;6123633;23;20149;-90
2022/11/25 02:51:54;;;;;;;107.30;10.93;;;;;;;;;;6140929;23;20176;-89
2022/11/25 02:54:59;;;;;;;126.90;10.17;;;;;;;;;;6141688;23;20248;-91
2022/11/25 02:58:05;;;;;;;125.50;11.00;;;;;;;;;;6123846;23;20217;-92
2022/11/25 03:01:11;;;;;;;149.20;10.77;;;;;;;;;;6125751;23;20177;-92
2022/11/25 03:04:16;;;;;;;174.13;11.23;;;;;;;;;;6126495;23;20224;-90
2022/11/25 03:07:23;;;;;;;101.57;10.90;;;;;;;;;;6126391;23;20165;-89
2022/11/25 03:10:28;;;;;;;69.07;10.20;;;;;;;;;;6125053;23;20205;-90
2022/11/25 03:13:35;;;;;;;66.07;9.07;;;;;;;;;;6125359;23;20209;-90
2022/11/25 03:16:41;;;;;;;83.60;10.70;;;;;;;;;;6125653;23;20727;-93
2022/11/25 03:19:47;;;;;;;82.97;9.77;;;;;;;;;;6127131;23;20157;-90
2022/11/25 03:22:52;;;;;;;61.70;9.43;;;;;;;;;;6128041;23;20177;-89
2022/11/25 03:25:58;;;;;;;59.10;9.97;;;;;;;;;;6143534;23;20181;-91
2022/11/25 03:29:06;;;;;;;39.30;9.00;;;;;;;;;;6126218;23;20217;-89
2022/11/25 03:32:13;;;;;;;53.93;9.03;;;;;;;;;;6126040;23;20161;-90
2022/11/25 03:35:18;;;;;;;61.47;10.70;;;;;;;;;;6126154;23;20174;-93
2022/11/25 03:38:24;;;;;;;69.20;9.50;;;;;;;;;;6125273;23;20177;-92
2022/11/25 03:41:30;;;;;;;54.07;9.17;;;;;;;;;;6126382;23;20665;-89
2022/11/25 03:44:37;;;;;;;72.63;10.43;;;;;;;;;;6125095;23;20173;-89
2022/11/25 03:47:44;;;;;;;73.23;9.83;;;;;;;;;;6123520;23;20189;-91
2022/11/25 03:50:49;;;;;;;87.07;10.23;;;;;;;;;;6141620;23;20177;-90
2022/11/25 03:53:55;;;;;;;74.77;9.90;;;;;;;;;;6124050;23;20185;-91
2022/11/25 03:57:01;;;;;;;98.77;11.30;;;;;;;;;;6142137;23;20154;-92
2022/11/25 04:00:10;;;;;;;71.67;9.23;;;;;;;;;;6124121;23;20276;-89
2022/11/25 04:03:32;;;;;;;121.33;11.00;;;;;;;;;;6142184;23;20198;-90
2022/11/25 04:06:38;;;;;;;85.47;9.50;;;;;;;;;;6126135;23;20218;-91
2022/11/25 04:09:43;;;;;;;58.67;8.60;;;;;;;;;;6125230;23;20404;-91
2022/11/25 04:12:51;;;;;;;68.27;7.70;;;;;;;;;;6124255;23;20230;-90
2022/11/25 04:16:06;;;;;;;48.60;7.60;;;;;;;;;;6125551;23;20189;-92
2022/11/25 04:19:11;;;;;;;41.43;7.47;;;;;;;;;;6124820;23;20170;-91
2022/11/25 04:22:16;;;;;;;53.20;7.53;;;;;;;;;;6127186;23;20173;-91
2022/11/25 04:25:24;;;;;;;72.47;8.77;;;;;;;;;;6124659;23;20545;-91
2022/11/25 04:28:30;;;;;;;113.77;8.43;;;;;;;;;;6125499;23;20202;-91
2022/11/25 04:31:37;;;;;;;80.70;7.90;;;;;;;;;;6125169;23;20196;-88
2022/11/25 04:34:43;;;;;;;86.50;8.50;;;;;;;;;;6124730;23;20201;-90
2022/11/25 04:37:49;;;;;;;45.27;7.83;;;;;;;;;;6125267;23;20213;-90
2022/11/25 04:40:54;;;;;;;82.20;8.63;;;;;;;;;;6123397;23;20169;-90
2022/11/25 04:44:01;;;;;;;65.23;7.53;;;;;;;;;;6124723;23;20236;-90
2022/11/25 04:47:09;;;;;;;57.37;7.50;;;;;;;;;;6122660;23;20177;-89
2022/11/25 04:50:20;;;;;;;77.30;8.43;;;;;;;;;;6124789;23;20225;-90
2022/11/25 04:53:38;;;;;;;57.93;8.30;;;;;;;;;;6124504;23;20664;-92
2022/11/25 04:56:45;;;;;;;79.27;8.80;;;;;;;;;;6123334;23;20624;-90
2022/11/25 04:59:51;;;;;;;77.67;8.80;;;;;;;;;;6121967;23;20177;-91
2022/11/25 05:03:00;;;;;;;50.53;7.60;;;;;;;;;;6122332;23;20182;-91
2022/11/25 05:06:07;;;;;;;28.23;7.13;;;;;;;;;;6124748;23;20241;-91
2022/11/25 05:09:14;;;;;;;52.37;7.67;;;;;;;;;;6123006;23;20165;-90
2022/11/25 05:12:23;;;;;;;48.53;9.17;;;;;;;;;;6122377;23;20164;-88
2022/11/25 05:15:28;;;;;;;74.23;8.30;;;;;;;;;;6121723;23;20168;-90
2022/11/25 05:18:35;;;;;;;81.10;8.60;;;;;;;;;;6123095;23;20197;-90
2022/11/25 05:22:22;;;;;;;30.83;7.37;;;;;;;;;;6122788;23;20169;-91
2022/11/25 05:25:27;;;;;;;47.70;7.57;;;;;;;;;;6123766;23;20278;-91
2022/11/25 05:28:59;;;;;;;42.80;6.53;;;;;;;;;;6142397;23;20165;-90
2022/11/25 05:32:05;;;;;;;44.80;8.30;;;;;;;;;;6125782;23;20221;-89
2022/11/25 05:35:12;;;;;;;49.00;6.97;;;;;;;;;;6125079;23;20157;-90
2022/11/25 05:38:19;;;;;;;51.43;7.37;;;;;;;;;;6140719;23;20612;-88
2022/11/25 05:41:25;;;;;;;50.50;8.20;;;;;;;;;;6124189;23;20172;-89
2022/11/25 05:44:33;;;;;;;66.77;7.20;;;;;;;;;;6124525;23;20193;-89
2022/11/25 05:47:39;;;;;;;74.83;7.87;;;;;;;;;;6127423;23;20216;-89
2022/11/25 05:50:47;;;;;;;27.23;8.07;;;;;;;;;;6125286;23;20192;-89
2022/11/25 05:53:58;;;;;;;33.30;7.43;;;;;;;;;;6124944;23;20169;-92
2022/11/25 05:57:08;;;;;;;18.07;6.70;;;;;;;;;;6128691;23;20170;-92
2022/11/25 06:00:25;;;;;;;17.33;6.40;;;;;;;;;;6126430;23;20156;-88
2022/11/25 06:03:35;;;;;;;15.10;6.17;;;;;;;;;;6124750;23;20663;-89
2022/11/25 06:06:42;;;;;;;29.67;6.27;;;;;;;;;;6125336;23;20150;-90
2022/11/25 06:09:47;;;;;;;18.00;6.23;;;;;;;;;;6139816;23;20348;-90
2022/11/25 06:12:52;;;;;;;20.03;6.13;;;;;;;;;;6126371;23;20246;-89
2022/11/25 06:15:58;;;;;;;27.70;7.00;;;;;;;;;;6124870;23;20205;-89
2022/11/25 06:19:05;;;;;;;16.87;6.20;;;;;;;;;;6124809;23;20173;-91
2022/11/25 06:22:14;;;;;;;15.60;6.40;;;;;;;;;;6126596;23;20153;-88
2022/11/25 06:25:28;;;;;;;22.10;6.27;;;;;;;;;;6124805;23;20217;-90
2022/11/25 06:28:34;;;;;;;20.23;6.70;;;;;;;;;;6126694;23;20169;-91
2022/11/25 06:31:40;;;;;;;17.73;7.30;;;;;;;;;;6127149;23;20280;-92
2022/11/25 06:35:05;;;;;;;19.53;7.43;;;;;;;;;;6144961;23;20161;-90
2022/11/25 06:38:25;;;;;;;25.87;8.70;;;;;;;;;;6126079;23;20507;-89
2022/11/25 06:41:31;;;;;;;20.00;7.73;;;;;;;;;;6125678;23;20220;-92
2022/11/25 06:44:36;;;;;;;26.73;7.67;;;;;;;;;;6141526;23;20245;-89
2022/11/25 06:47:41;;;;;;;34.47;7.80;;;;;;;;;;6123629;23;20609;-90
2022/11/25 06:50:46;;;;;;;15.03;6.90;;;;;;;;;;6123791;23;20193;-90
2022/11/25 06:53:53;;;;;;;18.90;7.00;;;;;;;;;;6139877;23;20164;-91
2022/11/25 06:57:00;;;;;;;24.20;7.27;;;;;;;;;;6125303;23;20235;-89
2022/11/25 07:00:06;;;;;;;20.33;7.50;;;;;;;;;;6127435;23;20170;-89
2022/11/25 07:06:32;;;;;;;16.93;8.10;;;;;;;;;;6124431;23;20181;-89
2022/11/25 07:09:38;;;;;;;17.23;7.70;;;;;;;;;;6124044;23;20197;-89
2022/11/25 07:12:44;;;;;;;20.93;9.37;;;;;;;;;;6124613;23;20201;-92
2022/11/25 07:15:49;;;;;;;20.50;8.90;;;;;;;;;;6124497;23;20169;-89
2022/11/25 07:18:55;;;;;;;18.17;8.37;;;;;;;;;;6124640;23;20169;-90
2022/11/25 07:22:00;;;;;;;15.60;7.97;;;;;;;;;;6124548;23;20202;-90
2022/11/25 07:25:08;;;;;;;16.37;7.10;;;;;;;;;;6125745;23;20259;-91
2022/11/25 07:28:13;;;;;;;20.20;7.93;;;;;;;;;;6126904;23;20198;-91
2022/11/25 07:34:39;;;;;;;16.73;7.80;;;;;;;;;;6126916;23;20548;-91
2022/11/25 07:41:07;;;;;;;18.17;8.20;;;;;;;;;;6126758;23;20169;-90
2022/11/25 07:44:13;;;;;;;19.63;7.50;;;;;;;;;;6125837;23;20189;-91
2022/11/25 07:47:34;;;;;;;18.60;8.23;;;;;;;;;;6125155;23;20217;-89
2022/11/25 07:50:39;;;;;;;18.10;7.87;;;;;;;;;;6124580;23;20298;-91
2022/11/25 07:53:45;;;;;;;17.20;7.70;;;;;;;;;;6141221;23;20201;-91
2022/11/25 07:56:53;;;;;;;17.97;7.90;;;;;;;;;;6126297;23;20206;-89
2022/11/25 07:59:58;;;;;;;15.00;7.23;;;;;;;;;;6125283;23;20220;-89
2022/11/25 08:03:03;;;;;;;25.80;12.70;;;;;;;;;;6142417;23;20174;-90
2022/11/25 08:06:09;;;;;;;22.80;8.40;;;;;;;;;;6125706;23;20206;-90
2022/11/25 08:09:17;;;;;;;14.93;7.17;;;;;;;;;;6124683;23;20254;-88
2022/11/25 08:12:23;;;;;;;15.97;7.57;;;;;;;;;;6123132;23;20228;-89
2022/11/25 08:15:29;;;;;;;17.27;7.30;;;;;;;;;;6125341;23;20181;-89
2022/11/25 08:18:35;;;;;;;18.50;8.20;;;;;;;;;;6128867;23;20173;-90
2022/11/25 08:21:43;;;;;;;16.90;7.70;;;;;;;;;;6147528;23;20225;-89
2022/11/25 08:24:50;;;;;;;13.77;6.57;;;;;;;;;;6128362;23;20169;-89
2022/11/25 08:27:58;;;;;;;15.47;8.13;;;;;;;;;;6127575;23;20227;-88
2022/11/25 08:31:04;;;;;;;22.07;8.33;;;;;;;;;;6124526;23;20197;-90
2022/11/25 08:34:19;;;;;;;17.70;7.03;;;;;;;;;;6126539;23;20169;-92
2022/11/25 08:37:26;;;;;;;19.93;8.77;;;;;;;;;;6127416;23;20170;-90
2022/11/25 08:40:31;;;;;;;27.23;7.50;;;;;;;;;;6142425;23;20165;-89
2022/11/25 08:43:38;;;;;;;21.37;7.93;;;;;;;;;;6122801;23;20176;-92
2022/11/25 08:46:44;;;;;;;21.93;8.37;;;;;;;;;;6124307;23;20165;-91
2022/11/25 08:49:51;;;;;;;19.83;8.00;;;;;;;;;;6141398;23;20169;-92
2022/11/25 08:52:58;;;;;;;16.27;7.60;;;;;;;;;;6140324;23;20193;-88
2022/11/25 08:56:03;;;;;;;18.77;8.83;;;;;;;;;;6124110;23;20173;-88
2022/11/25 08:59:12;;;;;;;16.23;7.90;;;;;;;;;;6125649;23;20261;-88
2022/11/25 09:02:18;;;;;;;15.07;6.90;;;;;;;;;;6126192;23;20173;-90
2022/11/25 09:08:44;;;;;;;19.07;8.10;;;;;;;;;;6124893;23;20168;-90
2022/11/25 09:11:49;;;;;;;17.47;7.87;;;;;;;;;;6122627;23;20277;-91
2022/11/25 09:14:56;;;;;;;19.10;7.27;;;;;;;;;;6123644;23;20473;-89
2022/11/25 09:18:02;;;;;;;25.43;8.97;;;;;;;;;;6142437;23;20218;-90
2022/11/25 09:21:09;;;;;;;18.87;8.43;;;;;;;;;;6124537;23;20286;-90
2022/11/25 09:24:14;;;;;;;18.00;8.20;;;;;;;;;;6124533;23;20177;-90
2022/11/25 09:27:21;;;;;;;21.87;9.37;;;;;;;;;;6125395;23;20234;-90
2022/11/25 09:30:28;;;;;;;15.77;7.83;;;;;;;;;;6141188;23;20165;-89
2022/11/25 09:33:33;;;;;;;20.43;8.33;;;;;;;;;;6124531;23;20192;-89
2022/11/25 09:36:39;;;;;;;19.27;10.10;;;;;;;;;;6125071;23;20221;-90
2022/11/25 09:39:44;;;;;;;21.90;9.33;;;;;;;;;;6123639;23;20201;-89
2022/11/25 09:49:49;;;;;;;20.67;8.73;;;;;;;;;;6125471;23;20224;-91
2022/11/25 09:53:02;;;;;;;22.20;9.83;;;;;;;;;;6140860;23;20236;-92
2022/11/25 09:56:11;;;;;;;24.67;9.40;;;;;;;;;;6095035;23;20193;-91
2022/11/25 09:59:20;;;;;;;22.93;10.13;;;;;;;;;;6095529;23;20245;-90
2022/11/25 10:02:29;;;;;;;27.00;8.80;;;;;;;;;;6005313;23;20195;-91
2022/11/25 10:05:44;;;;;;;23.00;9.33;;;;;;;;;;5976626;23;20196;-89
2022/11/25 10:08:50;;;;;;;22.40;8.77;;;;;;;;;;5935030;24;20806;-89
2022/11/25 10:11:57;;;;;;;23.83;8.90;;;;;;;;;;5808532;24;20217;-90
2022/11/25 10:15:03;;;;;;;23.03;9.10;;;;;;;;;;5728645;24;20256;-89
2022/11/25 12:30:57;;;;;;;18.65;8.20;;;;;;;;;;5506858;25;20190;-91
2022/11/25 12:34:05;;;;;;;17.67;7.82;;;;;;;;;;5488358;26;20241;-92
2022/11/25 12:37:13;;;;;;;20.30;8.60;;;;;;;;;;5488914;26;20189;-91
2022/11/25 12:40:27;;;;;;;17.27;8.73;;;;;;;;;;5489959;26;20258;-90
2022/11/25 12:43:37;;;;;;;15.93;7.88;;;;;;;;;;5488485;26;20193;-90
2022/11/25 12:46:45;;;;;;;18.67;9.13;;;;;;;;;;5488665;26;20174;-88
2022/11/25 12:49:57;;;;;;;18.83;9.48;;;;;;;;;;5488393;26;20252;-94
2022/11/25 12:53:11;;;;;;;17.05;8.23;;;;;;;;;;5487567;26;20285;-92
2022/11/25 12:56:21;;;;;;;14.60;8.52;;;;;;;;;;5501517;25;20193;-92
2022/11/25 12:59:42;;;;;;;16.25;8.20;;;;;;;;;;5487217;26;20182;-91
2022/11/25 13:03:04;;;;;;;24.90;9.20;;;;;;;;;;5487432;26;20660;-91
2022/11/25 13:06:24;;;;;;;18.20;8.90;;;;;;;;;;5487551;26;20213;-91
2022/11/25 13:09:40;;;;;;;15.02;7.70;;;;;;;;;;5487659;26;20178;-89
2022/11/25 13:12:51;;;;;;;20.65;8.73;;;;;;;;;;5487414;26;20198;-88
2022/11/25 13:16:04;;;;;;;15.55;8.07;;;;;;;;;;5487791;26;20187;-90
2022/11/25 13:19:11;;;;;;;14.35;8.18;;;;;;;;;;5488627;26;20238;-90
2022/11/25 13:22:28;;;;;;;17.35;9.05;;;;;;;;;;5532117;25;20232;-88
2022/11/25 13:25:34;;;;;;;20.13;8.73;;;;;;;;;;5729307;24;20655;-90
2022/11/25 13:28:42;;;;;;;16.90;8.40;;;;;;;;;;5782611;24;20198;-90
2022/11/25 13:35:36;;;;;;;21.25;9.40;;;;;;;;;;5759915;24;20195;-88
2022/11/25 13:39:09;;;;;;;17.05;8.40;;;;;;;;;;5760239;24;20170;-88
2022/11/25 13:42:22;;;;;;;22.67;9.48;;;;;;;;;;5760075;24;20245;-91
2022/11/25 17:10:49;;;;;;;30.17;13.73;;;;;;;;;;6100981;23;20211;-92
2022/11/25 17:13:56;;;;;;;28.17;13.47;;;;;;;;;;5921707;24;20316;-92
2022/11/25 17:17:02;;;;;;;25.43;13.17;;;;;;;;;;5917219;24;20178;-92
2022/11/25 17:20:11;;;;;;;27.13;13.37;;;;;;;;;;5915740;24;20219;-89
2022/11/25 17:23:18;;;;;;;30.10;13.47;;;;;;;;;;5915837;24;20158;-90
2022/11/25 17:26:27;;;;;;;31.50;14.67;;;;;;;;;;5915845;24;20204;-91
2022/11/25 17:29:33;;;;;;;27.80;13.47;;;;;;;;;;5913778;24;20246;-93
2022/11/25 17:32:39;;;;;;;40.80;17.17;;;;;;;;;;5914045;24;20593;-90
2022/11/25 17:35:45;;;;;;;41.17;17.10;;;;;;;;;;5911886;24;20171;-89
2022/11/25 17:38:50;;;;;;;44.47;19.13;;;;;;;;;;5914328;24;20154;-92
2022/11/25 17:41:57;;;;;;;36.13;15.53;;;;;;;;;;5915231;24;20350;-91
2022/11/25 17:45:03;;;;;;;34.77;15.97;;;;;;;;;;5914918;24;20230;-93
2022/11/25 17:48:10;;;;;;;33.03;17.13;;;;;;;;;;5913913;24;20171;-92
2022/11/25 17:51:16;;;;;;;39.00;16.77;;;;;;;;;;5912074;24;20254;-93
2022/11/25 17:54:21;;;;;;;38.47;16.57;;;;;;;;;;5914264;24;20177;-90
2022/11/25 17:57:28;;;;;;;34.60;16.70;;;;;;;;;;5915204;24;20500;-90
2022/11/25 18:00:42;;;;;;;36.10;16.37;;;;;;;;;;5915311;24;20247;-89
2022/11/25 18:03:51;;;;;;;36.67;17.17;;;;;;;;;;5915491;24;20170;-87
2022/11/25 18:06:59;;;;;;;39.27;18.97;;;;;;;;;;5914488;24;20192;-89
2022/11/25 18:10:05;;;;;;;41.13;18.50;;;;;;;;;;5914230;24;20163;-91
2022/11/25 18:13:12;;;;;;;29.43;14.47;;;;;;;;;;6049461;23;20267;-90
2022/11/25 18:16:19;;;;;;;40.30;20.70;;;;;;;;;;6099724;23;20192;-90
2022/11/25 18:19:24;;;;;;;85.63;37.33;;;;;;;;;;6100436;23;20174;-91
2022/11/25 18:22:30;;;;;;;73.07;32.37;;;;;;;;;;6101216;23;20251;-92
2022/11/25 18:25:36;;;;;;;34.17;16.07;;;;;;;;;;6099279;23;20206;-91
2022/11/25 18:28:44;;;;;;;33.13;16.03;;;;;;;;;;6100116;23;20219;-90
2022/11/25 18:31:51;;;;;;;37.40;16.40;;;;;;;;;;6100746;23;20174;-92
2022/11/25 18:34:56;;;;;;;32.80;16.57;;;;;;;;;;6100966;23;20170;-89
2022/11/25 18:38:02;;;;;;;35.73;16.90;;;;;;;;;;6101040;23;20191;-92
2022/11/25 18:41:11;;;;;;;40.07;16.80;;;;;;;;;;6098245;23;20198;-92
2022/11/25 18:44:21;;;;;;;34.77;16.57;;;;;;;;;;6098929;23;20211;-93
2022/11/25 18:47:27;;;;;;;36.30;16.20;;;;;;;;;;6097443;23;20179;-91
2022/11/25 18:50:59;;;;;;;32.53;16.53;;;;;;;;;;6104616;23;20245;-91
2022/11/25 18:54:05;;;;;;;33.30;15.73;;;;;;;;;;6101287;23;20202;-92
2022/11/25 18:57:11;;;;;;;39.03;16.43;;;;;;;;;;6099419;23;20231;-90
2022/11/25 19:00:20;;;;;;;36.80;17.20;;;;;;;;;;6084857;23;20163;-92
2022/11/25 19:03:27;;;;;;;541.93;273.30;;;;;;;;;;6098228;23;20178;-93
2022/11/25 19:06:32;;;;;;;45.10;20.37;;;;;;;;;;6101971;23;20174;-90
2022/11/25 19:09:40;;;;;;;46.63;18.63;;;;;;;;;;6100079;23;20933;-93
2022/11/25 19:12:48;;;;;;;48.80;20.73;;;;;;;;;;6105635;23;20271;-91
2022/11/25 19:15:55;;;;;;;56.93;23.63;;;;;;;;;;6084922;23;20170;-93
2022/11/25 19:19:01;;;;;;;55.20;22.47;;;;;;;;;;6082148;23;20532;-92
2022/11/25 19:22:23;;;;;;;71.50;29.77;;;;;;;;;;6084195;23;20252;-92
2022/11/25 19:25:30;;;;;;;64.57;23.77;;;;;;;;;;6082627;23;20170;-92
2022/11/25 19:28:35;;;;;;;51.17;22.20;;;;;;;;;;6082716;23;20158;-91
2022/11/25 19:31:42;;;;;;;114.47;49.10;;;;;;;;;;6081238;23;20242;-94
2022/11/25 19:34:50;;;;;;;52.50;22.10;;;;;;;;;;6081892;23;20214;-92
2022/11/25 19:37:56;;;;;;;45.13;19.27;;;;;;;;;;6080526;23;20170;-92
2022/11/25 19:41:01;;;;;;;40.63;17.70;;;;;;;;;;6081736;23;20233;-94
2022/11/25 19:44:06;;;;;;;44.53;21.07;;;;;;;;;;6080761;23;20187;-92
2022/11/25 19:47:16;;;;;;;30.67;15.37;;;;;;;;;;6082657;23;20249;-93
2022/11/25 19:50:23;;;;;;;31.77;16.60;;;;;;;;;;6081955;23;20175;-93
2022/11/25 19:53:29;;;;;;;35.17;16.80;;;;;;;;;;6080325;23;20199;-92
2022/11/25 19:56:36;;;;;;;33.67;16.23;;;;;;;;;;6080811;23;20163;-92
2022/11/25 19:59:41;;;;;;;37.60;17.10;;;;;;;;;;6080878;23;20178;-93
2022/11/25 20:02:49;;;;;;;38.80;18.47;;;;;;;;;;6083955;23;20666;-92
2022/11/25 20:05:55;;;;;;;38.10;18.93;;;;;;;;;;6082659;23;20231;-92
2022/11/25 20:09:01;;;;;;;45.93;22.43;;;;;;;;;;6084809;23;20178;-92
2022/11/25 20:12:19;;;;;;;44.97;20.87;;;;;;;;;;6135632;23;20291;-92
2022/11/25 20:15:25;;;;;;;41.83;17.70;;;;;;;;;;6134773;23;20184;-94
2022/11/25 20:18:32;;;;;;;34.47;15.70;;;;;;;;;;5958013;23;20284;-92
2022/11/25 20:21:41;;;;;;;32.10;15.50;;;;;;;;;;5687348;24;20204;-91
2022/11/25 22:25:20;;;;;;;46.50;19.60;;;;;;;;;;5342294;26;20206;-92
2022/11/25 22:28:36;;;;;;;46.60;18.77;;;;;;;;;;5532465;25;1403062;-94
2022/11/25 22:31:42;;;;;;;47.63;18.63;;;;;;;;;;5613031;25;20207;-94
2022/11/25 22:34:48;;;;;;;40.27;18.33;;;;;;;;;;5609555;25;20498;-91
2022/11/25 22:37:53;;;;;;;45.87;19.73;;;;;;;;;;5609028;25;20207;-93
2022/11/25 22:41:00;;;;;;;48.27;20.50;;;;;;;;;;5608515;25;20204;-93
2022/11/25 22:44:07;;;;;;;47.70;20.33;;;;;;;;;;5608438;25;20170;-90
2022/11/25 22:47:17;;;;;;;45.07;19.63;;;;;;;;;;5609112;25;20179;-93
2022/11/25 22:50:24;;;;;;;47.97;20.30;;;;;;;;;;5611047;25;20187;-92
2022/11/25 22:53:30;;;;;;;42.70;18.93;;;;;;;;;;5609913;25;20291;-94
2022/11/25 22:56:36;;;;;;;44.77;19.20;;;;;;;;;;5593988;25;20244;-92
2022/11/25 22:59:46;;;;;;;43.60;18.93;;;;;;;;;;5609280;25;20171;-91
2022/11/25 23:03:01;;;;;;;45.53;18.47;;;;;;;;;;5608888;25;20187;-91
2022/11/25 23:06:07;;;;;;;46.77;19.93;;;;;;;;;;5595297;25;20213;-92
2022/11/25 23:09:15;;;;;;;48.10;20.53;;;;;;;;;;5609266;25;20221;-90
2022/11/25 23:12:20;;;;;;;50.50;20.37;;;;;;;;;;5608760;25;20196;-91
2022/11/25 23:15:27;;;;;;;46.83;19.50;;;;;;;;;;5609663;25;20187;-92
2022/11/25 23:18:36;;;;;;;44.37;19.07;;;;;;;;;;5610236;25;20187;-90
2022/11/25 23:21:41;;;;;;;46.07;20.33;;;;;;;;;;5610110;25;20191;-91
2022/11/25 23:24:48;;;;;;;39.00;18.03;;;;;;;;;;5607847;25;20190;-91
2022/11/25 23:27:53;;;;;;;35.03;17.00;;;;;;;;;;5874268;24;20225;-91
2022/11/25 23:31:02;;;;;;;40.07;17.03;;;;;;;;;;5928303;24;20707;-92
2022/11/25 23:34:08;;;;;;;35.30;16.57;;;;;;;;;;5930324;24;20260;-92
2022/11/25 23:37:14;;;;;;;38.60;16.87;;;;;;;;;;5916634;24;20252;-92
2022/11/25 23:40:20;;;;;;;36.10;16.50;;;;;;;;;;5931810;23;20175;-92
2022/11/25 23:43:26;;;;;;;36.03;16.47;;;;;;;;;;5917230;24;20224;-92
2022/11/25 23:46:40;;;;;;;35.40;16.63;;;;;;;;;;5915741;24;20227;-92
2022/11/25 23:49:49;;;;;;;37.23;17.17;;;;;;;;;;5915894;24;20202;-92
2022/11/25 23:52:56;;;;;;;39.17;17.83;;;;;;;;;;5915304;24;20626;-91
2022/11/25 23:56:02;;;;;;;34.13;15.40;;;;;;;;;;5916825;24;20255;-91
2022/11/25 23:59:10;;;;;;;35.90;16.27;;;;;;;;;;5933683;23;20219;-93
